Startpagina
METAR-TAF:

METAR-TAF

Vliegvelden :

Luchthaven Schiphol

Amsterdam, Nederland

breedte: 52-18N, lengte: 004-46E, hoogte: -4 m

Actueel weer

Dit bericht is 14 minuten geleden gemaakt, om 23:55 UTC
Wind 5 kt uit het noordwesten
Temperatuur 10°C
Vochtigheid 93%
Druk 1026 hPa
Zicht 10 km of meer
Weinig wolken op 1800 ft

METAR: EHAM 122355Z 31005KT 9999 FEW018 10/09 Q1026 NOSIG

Tijdstip: 02:09 (00:09 UTC)

Verwachting

Dit bericht is 1 uur en het 24 minuten geleden gemaakt, om 22:45 UTC
Verwachting geldig van 13 om 00 UTC tot 14 om 06 UTC
Wind 5 kt uit het westnoordwesten
Zicht 10 km of meer
geen wolken onder 1500 m en geen cumulonimbus

TAF: EHAM 122245Z 1300/1406 29005KT CAVOK

Waarnemingen en weersverwachtingen van meer dan 4000 vliegvelden (METAR en TAF).

De beschikbare stations zijn de gele en rode punten op de kaart.

Ga met uw muis naar het station om de naam te zien.

Klik dan om waarnemingen en weersverwachtingen te zien.

kaart wijzigen: klik op de groene knoppen met een zwart kruis om in te zoomen, op de groene knop met een streepje om uit te zoomen of op de groene pijlen voor aangrenzende kaarten.


METAR-TAF: